This is the latest recevied weather packets stored in our database for station/object LTAC. If no packets are shown the sender has not sent any weather packets the latest 10 day(s).
| Time | Temp. | Humidity | Pressure | Rain* | Wind** | Luminosity | Snow |
|---|---|---|---|---|---|---|---|
| 1777529704 | 8.89° C | 61% | 1018 hPa | - | - | - | - |
| 1777528805 | 8.89° C | 61% | 1018 hPa | - | - | - | - |
| 1777524304 | 5° C | 75% | 1018 hPa | - | - | - | - |
| 1777522504 | 3.89° C | 75% | 1017 hPa | - | - | - | - |
| 1777520704 | 2.78° C | 80% | 1017 hPa | - | - | - | - |
| 1777519804 | 2.78° C | 80% | 1017 hPa | - | - | - | - |
| 1777518004 | 2.78° C | 80% | 1017 hPa | - | - | - | - |
| 1777516204 | 3.89° C | 75% | 1017 hPa | - | - | - | - |
| 1777515304 | 5° C | 70% | 1017 hPa | - | - | - | - |
| 1777514405 | 5° C | 70% | 1017 hPa | - | - | - | - |
| 1777513504 | 3.89° C | 80% | 1017 hPa | - | - | - | - |
| 1777511704 | 5° C | 75% | 1017 hPa | - | - | - | - |
| 1777509905 | 6.11° C | 70% | 1017 hPa | - | - | - | - |
| 1777505404 | 7.22° C | 61% | 1017 hPa | - | - | - | - |
| 1777502703 | 6.11° C | 70% | 1017 hPa | - | - | - | - |
| 1777501804 | 6.11° C | 70% | 1017 hPa | - | - | - | - |
| 1777500904 | 7.78° C | 61% | 1017 hPa | - | - | - | - |
| 1777500006 | 7.78° C | 61% | 1017 hPa | - | - | - | - |
| 1777499104 | 7.78° C | 61% | 1017 hPa | - | - | - | - |
| 1777495504 | 10° C | 53% | 1017 hPa | - | - | - | - |
| 1777492805 | 10° C | 49% | 1017 hPa | - | - | - | - |
| 1777491904 | 11.11° C | 50% | 1017 hPa | - | - | - | - |
| 1777491004 | 11.11° C | 50% | 1017 hPa | - | - | - | - |
| 1777490104 | 11.11° C | 50% | 1016 hPa | - | - | - | - |
| 1777489205 | 11.11° C | 50% | 1016 hPa | - | - | - | - |
* Rain since midnight (hover to see other rain measurements)
** Current wind speed in m/s (hover to see current wind gust speed)